createdAt,value
2018-08-04T00:00:08.277Z,24.90
2018-08-04T00:02:36.568Z,24.90
2018-08-04T00:05:05.117Z,24.80
2018-08-04T00:07:33.176Z,24.80
2018-08-04T00:10:01.245Z,24.80
2018-08-04T00:12:29.344Z,24.80
2018-08-04T00:14:57.404Z,24.70
2018-08-04T00:17:25.472Z,24.70
2018-08-04T00:19:53.532Z,24.70
2018-08-04T00:22:21.604Z,24.60
2018-08-04T00:24:49.780Z,24.60
2018-08-04T00:27:17.832Z,24.50
2018-08-04T00:29:45.897Z,24.50
2018-08-04T00:32:13.963Z,24.50
2018-08-04T00:34:42.020Z,24.50
2018-08-04T00:39:44.586Z,24.40
2018-08-04T00:42:12.641Z,24.40
2018-08-04T00:44:40.744Z,24.30
2018-08-04T00:47:08.807Z,24.30
2018-08-04T00:49:36.880Z,24.30
2018-08-04T00:52:04.949Z,24.30
2018-08-04T00:54:33.022Z,24.20
2018-08-04T00:57:01.084Z,24.20
2018-08-04T00:59:29.144Z,24.20
2018-08-04T01:01:57.203Z,24.20
2018-08-04T01:04:25.252Z,24.10
2018-08-04T01:06:53.370Z,24.10
2018-08-04T01:09:21.408Z,24.10
2018-08-04T01:11:49.439Z,24.10
2018-08-04T01:14:17.489Z,24.10
2018-08-04T01:16:45.525Z,24.00
2018-08-04T01:19:13.575Z,24.00
2018-08-04T01:21:41.620Z,24.00
2018-08-04T01:24:09.664Z,23.90
2018-08-04T01:29:05.764Z,23.90
2018-08-04T01:31:33.785Z,23.90
2018-08-04T01:34:01.866Z,23.80
2018-08-04T01:36:29.877Z,23.80
2018-08-04T01:38:57.951Z,23.70
2018-08-04T01:41:25.955Z,23.70
2018-08-04T01:43:53.992Z,23.70
2018-08-04T01:46:22.037Z,23.60
2018-08-04T01:48:50.071Z,23.60
2018-08-04T01:51:18.117Z,23.60
2018-08-04T01:53:46.220Z,23.50
2018-08-04T01:56:14.192Z,23.50
2018-08-04T01:58:42.224Z,23.40
2018-08-04T02:01:10.263Z,23.40
2018-08-04T02:03:38.305Z,23.30
2018-08-04T02:06:06.440Z,23.30
2018-08-04T02:08:34.492Z,23.30
2018-08-04T02:11:02.560Z,23.20
2018-08-04T02:13:30.663Z,23.20
2018-08-04T02:15:58.724Z,23.20
2018-08-04T02:18:26.776Z,23.20
2018-08-04T02:21:01.229Z,23.10
2018-08-04T02:23:29.292Z,23.10
2018-08-04T02:25:57.359Z,23.10
2018-08-04T02:28:25.405Z,23.10
2018-08-04T02:30:53.472Z,23.00
2018-08-04T02:33:21.524Z,23.00
2018-08-04T02:35:49.585Z,22.90
2018-08-04T02:38:17.643Z,22.90
2018-08-04T02:40:45.750Z,22.90
2018-08-04T02:43:13.808Z,22.90
2018-08-04T02:45:41.912Z,22.90
2018-08-04T02:48:09.968Z,22.90
2018-08-04T02:50:38.033Z,22.90
2018-08-04T02:53:06.097Z,22.90
2018-08-04T02:55:34.152Z,22.90
2018-08-04T02:58:02.216Z,22.80
2018-08-04T03:00:30.277Z,22.80
2018-08-04T03:02:58.337Z,22.80
2018-08-04T03:05:26.394Z,22.80
2018-08-04T03:07:54.442Z,22.80
2018-08-04T03:10:22.476Z,22.80
2018-08-04T03:12:50.606Z,22.70
2018-08-04T03:15:18.661Z,22.70
2018-08-04T03:17:46.809Z,22.60
2018-08-04T03:20:14.856Z,22.50
2018-08-04T03:22:42.896Z,22.40
2018-08-04T03:25:10.941Z,22.30
2018-08-04T03:27:38.979Z,22.20
2018-08-04T03:30:07.025Z,22.10
2018-08-04T03:32:35.061Z,22.10
2018-08-04T03:35:03.117Z,22.00
2018-08-04T03:37:31.165Z,22.00
2018-08-04T03:39:59.387Z,22.00
2018-08-04T03:42:27.433Z,22.00
2018-08-04T03:44:55.467Z,22.00
2018-08-04T03:47:23.507Z,21.90
2018-08-04T03:52:19.396Z,21.90
2018-08-04T03:54:47.432Z,21.90
2018-08-04T03:57:15.484Z,21.90
2018-08-04T03:59:43.526Z,21.90
2018-08-04T04:02:11.748Z,21.80
2018-08-04T04:04:39.809Z,21.80
2018-08-04T04:07:08.015Z,21.80
2018-08-04T04:09:36.077Z,21.80
2018-08-04T04:12:04.135Z,21.80
2018-08-04T04:17:00.045Z,21.80
2018-08-04T04:19:28.100Z,21.80
2018-08-04T04:21:56.164Z,21.80
2018-08-04T04:24:24.217Z,21.90
2018-08-04T04:26:52.287Z,21.90
2018-08-04T04:29:20.429Z,22.00
2018-08-04T04:31:48.493Z,22.00
2018-08-04T04:34:16.548Z,22.10
2018-08-04T04:36:44.676Z,22.10
2018-08-04T04:39:12.677Z,22.20
2018-08-04T04:41:41.204Z,22.30
2018-08-04T04:44:09.484Z,22.40
2018-08-04T04:46:37.768Z,22.40
2018-08-04T04:49:07.297Z,22.40
2018-08-04T04:51:35.356Z,22.50
2018-08-04T04:54:03.492Z,22.50
2018-08-04T04:56:31.562Z,22.60
2018-08-04T04:58:59.621Z,22.70
2018-08-04T05:01:27.828Z,22.80
2018-08-04T05:03:56.220Z,22.90
2018-08-04T05:06:24.289Z,23.00
2018-08-04T05:08:52.337Z,23.10
2018-08-04T05:11:20.377Z,23.20
2018-08-04T05:13:48.417Z,23.40
2018-08-04T05:16:16.456Z,23.50
2018-08-04T05:18:44.522Z,23.60
2018-08-04T05:21:12.560Z,23.70
2018-08-04T05:23:40.628Z,23.80
2018-08-04T05:26:08.681Z,24.00
2018-08-04T05:28:37.270Z,24.10
2018-08-04T05:31:06.928Z,24.20
2018-08-04T05:33:35.553Z,24.40
2018-08-04T05:36:03.644Z,24.50
2018-08-04T05:38:31.692Z,24.60
2018-08-04T05:40:59.751Z,24.70
2018-08-04T05:43:27.847Z,24.90
2018-08-04T05:45:55.840Z,25.00
2018-08-04T05:48:23.876Z,25.10
2018-08-04T05:50:51.920Z,25.30
2018-08-04T05:53:19.965Z,25.40
2018-08-04T05:55:48.000Z,25.50
2018-08-04T05:58:16.056Z,25.60
2018-08-04T06:00:44.125Z,25.70
2018-08-04T06:03:12.220Z,25.80
2018-08-04T06:05:40.319Z,25.90
2018-08-04T06:08:08.364Z,26.00
2018-08-04T06:10:36.488Z,26.00
2018-08-04T06:13:04.567Z,26.10
2018-08-04T06:15:32.632Z,26.20
2018-08-04T06:18:00.704Z,26.30
2018-08-04T06:20:28.768Z,26.50
2018-08-04T06:22:56.827Z,26.60
2018-08-04T06:25:24.883Z,26.80
2018-08-04T06:27:52.976Z,27.00
2018-08-04T06:30:21.041Z,27.40
2018-08-04T06:32:49.108Z,27.70
2018-08-04T06:35:17.172Z,28.20
2018-08-04T06:37:45.243Z,28.90
2018-08-04T06:40:13.308Z,30.00
2018-08-04T06:42:41.384Z,31.20
2018-08-04T06:45:09.452Z,32.30
2018-08-04T06:47:37.521Z,33.40
2018-08-04T06:50:06.092Z,34.40
2018-08-04T06:52:34.304Z,35.40
2018-08-04T06:55:02.442Z,36.30
2018-08-04T06:57:30.509Z,37.00
2018-08-04T06:59:58.575Z,37.60
2018-08-04T07:02:26.660Z,38.20
2018-08-04T07:04:54.728Z,38.80
2018-08-04T07:07:22.775Z,39.30
2018-08-04T07:09:57.483Z,39.80
2018-08-04T07:12:25.536Z,40.10
2018-08-04T07:14:53.563Z,40.40
2018-08-04T07:17:21.612Z,40.50
2018-08-04T07:19:49.652Z,40.80
2018-08-04T07:22:17.704Z,41.10
2018-08-04T07:24:45.747Z,41.50
2018-08-04T07:27:13.797Z,41.90
2018-08-04T07:29:41.873Z,42.30
2018-08-04T07:32:09.912Z,42.50
2018-08-04T07:34:37.960Z,42.80
2018-08-04T07:37:06.484Z,43.10
2018-08-04T07:39:34.521Z,43.20
2018-08-04T07:42:02.568Z,43.50
2018-08-04T07:44:30.604Z,43.80
2018-08-04T07:46:58.664Z,43.90
2018-08-04T07:49:26.740Z,44.10
2018-08-04T07:51:54.772Z,44.40
2018-08-04T07:54:22.808Z,44.50
2018-08-04T07:56:50.851Z,44.50
2018-08-04T07:59:18.915Z,44.60
2018-08-04T08:01:46.937Z,44.80
2018-08-04T08:04:14.982Z,44.70
2018-08-04T08:06:43.197Z,44.70
2018-08-04T08:09:11.264Z,44.90
2018-08-04T08:11:39.325Z,45.10
2018-08-04T08:14:07.389Z,45.10
2018-08-04T08:16:35.443Z,45.30
2018-08-04T08:19:03.557Z,45.50
2018-08-04T08:21:31.608Z,45.60
2018-08-04T08:23:59.669Z,45.70
2018-08-04T08:26:27.728Z,45.90
2018-08-04T08:28:55.788Z,45.90
2018-08-04T08:31:23.876Z,46.10
2018-08-04T08:33:51.984Z,46.30
2018-08-04T08:36:20.037Z,46.50
2018-08-04T08:38:48.101Z,46.50
2018-08-04T08:41:16.160Z,46.50
2018-08-04T08:43:44.224Z,46.40
2018-08-04T08:46:12.318Z,46.00
2018-08-04T08:48:40.596Z,45.10
2018-08-04T08:51:08.659Z,44.00
2018-08-04T08:53:36.842Z,43.20
2018-08-04T08:56:05.444Z,42.50
2018-08-04T08:58:33.508Z,42.00
2018-08-04T09:01:01.600Z,41.20
2018-08-04T09:03:29.677Z,40.70
2018-08-04T09:05:57.743Z,40.40
2018-08-04T09:08:25.812Z,40.10
2018-08-04T09:10:53.872Z,40.20
2018-08-04T09:13:21.964Z,40.20
2018-08-04T09:15:50.020Z,40.20
2018-08-04T09:18:18.118Z,40.30
2018-08-04T09:20:46.189Z,40.20
2018-08-04T09:23:14.249Z,39.90
2018-08-04T09:25:42.304Z,39.80
2018-08-04T09:28:10.832Z,39.90
2018-08-04T09:30:38.896Z,40.10
2018-08-04T09:33:06.989Z,40.20
2018-08-04T09:35:35.064Z,40.20
2018-08-04T09:38:03.128Z,40.10
2018-08-04T09:40:31.192Z,40.20
2018-08-04T09:42:59.306Z,40.20
2018-08-04T09:45:27.348Z,40.30
2018-08-04T09:47:55.432Z,40.30
2018-08-04T09:50:23.495Z,40.50
2018-08-04T09:52:51.556Z,40.60
2018-08-04T09:55:19.620Z,40.70
2018-08-04T09:57:47.683Z,40.90
2018-08-04T10:00:21.276Z,41.00
2018-08-04T10:02:49.342Z,41.30
2018-08-04T10:05:17.517Z,41.10
2018-08-04T10:07:45.432Z,40.80
2018-08-04T10:10:13.482Z,40.60
2018-08-04T10:12:41.524Z,40.60
2018-08-04T10:15:10.776Z,40.90
2018-08-04T10:17:39.056Z,41.00
2018-08-04T10:20:08.734Z,40.90
2018-08-04T10:22:36.796Z,40.80
2018-08-04T10:25:05.368Z,40.70
2018-08-04T10:27:33.548Z,40.50
2018-08-04T10:30:01.609Z,40.50
2018-08-04T10:32:30.042Z,40.60
2018-08-04T10:34:58.068Z,40.90
2018-08-04T10:37:26.112Z,41.30
2018-08-04T10:39:54.163Z,41.40
2018-08-04T10:42:22.210Z,41.20
2018-08-04T10:44:50.244Z,40.90
2018-08-04T10:47:18.284Z,40.60
2018-08-04T10:49:46.335Z,40.70
2018-08-04T10:52:14.387Z,40.70
2018-08-04T10:54:42.440Z,40.60
2018-08-04T10:57:10.484Z,40.50
2018-08-04T10:59:38.548Z,40.20
2018-08-04T11:02:07.597Z,40.00
2018-08-04T11:04:35.676Z,39.80
2018-08-04T11:07:03.736Z,39.50
2018-08-04T11:09:31.790Z,39.10
2018-08-04T11:11:59.877Z,39.00
2018-08-04T11:14:27.928Z,38.80
2018-08-04T11:16:56.000Z,38.70
2018-08-04T11:19:24.053Z,38.60
2018-08-04T11:21:52.103Z,38.60
2018-08-04T11:24:20.145Z,38.40
2018-08-04T11:26:48.217Z,38.40
2018-08-04T11:29:16.261Z,38.40
2018-08-04T11:31:44.296Z,38.40
2018-08-04T11:34:12.347Z,38.30
2018-08-04T11:36:40.400Z,38.30
2018-08-04T11:39:10.674Z,38.20
2018-08-04T11:41:38.719Z,38.40
2018-08-04T11:44:06.768Z,38.60
2018-08-04T11:46:34.813Z,38.80
2018-08-04T11:49:02.888Z,39.00
2018-08-04T11:51:30.937Z,39.10
2018-08-04T11:53:58.981Z,39.10
2018-08-04T11:56:27.020Z,39.10
2018-08-04T11:58:55.056Z,39.00
2018-08-04T12:01:23.105Z,38.90
2018-08-04T12:03:51.148Z,38.80
2018-08-04T12:08:47.104Z,38.30
2018-08-04T12:11:15.250Z,38.00
2018-08-04T12:13:43.249Z,37.70
2018-08-04T12:16:11.297Z,37.50
2018-08-04T12:18:39.381Z,37.30
2018-08-04T12:21:07.434Z,37.00
2018-08-04T12:23:35.485Z,36.60
2018-08-04T12:26:03.536Z,36.40
2018-08-04T12:28:31.575Z,36.10
2018-08-04T12:30:59.620Z,35.90
2018-08-04T12:33:27.680Z,35.70
2018-08-04T12:35:55.748Z,35.60
2018-08-04T12:38:23.797Z,35.50
2018-08-04T12:40:51.880Z,35.50
2018-08-04T12:43:19.916Z,35.50
2018-08-04T12:45:47.987Z,35.60
2018-08-04T12:48:16.033Z,35.70
2018-08-04T12:50:44.128Z,35.80
2018-08-04T12:53:12.170Z,35.90
2018-08-04T12:55:40.277Z,36.20
2018-08-04T12:58:08.296Z,36.60
2018-08-04T13:00:36.344Z,37.00
2018-08-04T13:03:04.380Z,37.20
2018-08-04T13:05:32.442Z,37.30
2018-08-04T13:08:00.484Z,37.70
2018-08-04T13:10:28.548Z,38.20
2018-08-04T13:12:56.589Z,38.50
2018-08-04T13:15:24.639Z,38.50
2018-08-04T13:17:52.764Z,38.30
2018-08-04T13:20:20.813Z,38.20
2018-08-04T13:22:48.848Z,38.30
2018-08-04T13:25:16.892Z,38.60
2018-08-04T13:27:44.936Z,38.80
2018-08-04T13:30:12.992Z,39.00
2018-08-04T13:32:41.025Z,39.50
2018-08-04T13:35:08.777Z,39.80
2018-08-04T13:37:36.816Z,40.20
2018-08-04T13:40:05.065Z,40.50
2018-08-04T13:42:33.104Z,40.80
2018-08-04T13:45:01.148Z,40.90
2018-08-04T13:47:29.180Z,40.80
2018-08-04T13:49:57.256Z,40.80
2018-08-04T13:52:25.277Z,40.80
2018-08-04T13:54:53.336Z,40.70
2018-08-04T13:57:21.468Z,40.70
2018-08-04T13:59:49.556Z,40.60
2018-08-04T14:02:17.620Z,40.40
2018-08-04T14:04:45.688Z,40.20
2018-08-04T14:07:13.752Z,39.90
2018-08-04T14:09:41.812Z,39.60
2018-08-04T14:12:09.910Z,39.20
2018-08-04T14:14:37.952Z,38.70
2018-08-04T14:17:06.032Z,38.00
2018-08-04T14:19:34.132Z,37.30
2018-08-04T14:22:02.224Z,35.80
2018-08-04T14:24:30.295Z,33.90
2018-08-04T14:26:58.400Z,32.80
2018-08-04T14:29:26.460Z,32.00
2018-08-04T14:31:54.579Z,31.30
2018-08-04T14:34:22.639Z,30.70
2018-08-04T14:36:50.724Z,30.30
2018-08-04T14:39:18.810Z,29.90
2018-08-04T14:41:46.913Z,29.70
2018-08-04T14:44:15.060Z,29.60
2018-08-04T14:46:43.120Z,29.40
2018-08-04T14:49:11.201Z,29.30
2018-08-04T14:51:39.267Z,29.20
2018-08-04T14:54:07.344Z,29.20
2018-08-04T14:56:35.424Z,29.20
2018-08-04T14:59:03.529Z,29.20
2018-08-04T15:01:31.612Z,29.20
2018-08-04T15:03:59.687Z,29.30
2018-08-04T15:06:27.771Z,29.30
2018-08-04T15:08:55.844Z,29.30
2018-08-04T15:11:23.923Z,29.30
2018-08-04T15:13:51.989Z,29.20
2018-08-04T15:16:20.069Z,29.10
2018-08-04T15:18:48.135Z,29.10
2018-08-04T15:21:16.236Z,29.00
2018-08-04T15:23:44.356Z,28.90
2018-08-04T15:26:12.497Z,28.70
2018-08-04T15:28:40.608Z,28.50
2018-08-04T15:31:08.693Z,28.40
2018-08-04T15:33:36.764Z,28.30
2018-08-04T15:36:05.021Z,28.30
2018-08-04T15:38:33.136Z,28.30
2018-08-04T15:41:01.188Z,28.30
2018-08-04T15:45:57.117Z,28.50
2018-08-04T15:48:25.204Z,28.50
2018-08-04T15:50:53.286Z,28.50
2018-08-04T15:53:21.424Z,28.50
2018-08-04T15:55:49.518Z,28.60
2018-08-04T15:58:17.579Z,28.60
2018-08-04T16:00:45.644Z,28.50
2018-08-04T16:03:13.723Z,28.40
2018-08-04T16:05:41.828Z,28.50
2018-08-04T16:08:09.855Z,28.60
2018-08-04T16:10:37.925Z,28.70
2018-08-04T16:13:05.984Z,28.90
2018-08-04T16:15:34.096Z,29.00
2018-08-04T16:18:02.153Z,29.20
2018-08-04T16:20:30.276Z,29.20
2018-08-04T16:22:58.336Z,29.30
2018-08-04T16:25:26.412Z,29.50
2018-08-04T16:30:22.308Z,29.70
2018-08-04T16:32:50.378Z,29.80
2018-08-04T16:35:18.476Z,29.90
2018-08-04T16:37:46.544Z,29.90
2018-08-04T16:40:14.604Z,29.90
2018-08-04T16:42:42.696Z,29.90
2018-08-04T16:45:10.756Z,29.80
2018-08-04T16:47:38.807Z,29.60
2018-08-04T16:50:06.856Z,29.60
2018-08-04T16:52:34.964Z,29.60
2018-08-04T16:55:03.023Z,29.60
2018-08-04T16:57:31.120Z,29.70
2018-08-04T16:59:59.181Z,29.70
2018-08-04T17:04:55.289Z,29.70
2018-08-04T17:07:23.364Z,29.80
2018-08-04T17:09:51.400Z,29.80
2018-08-04T17:12:19.507Z,29.80
2018-08-04T17:14:47.509Z,29.80
2018-08-04T17:17:15.559Z,29.90
2018-08-04T17:19:43.613Z,29.90
2018-08-04T17:22:11.694Z,29.90
2018-08-04T17:24:39.829Z,29.90
2018-08-04T17:27:07.892Z,29.80
2018-08-04T17:29:35.934Z,29.80
2018-08-04T17:32:03.989Z,29.80
2018-08-04T17:34:32.040Z,29.80
2018-08-04T17:37:00.085Z,29.80
2018-08-04T17:39:28.127Z,29.70
2018-08-04T17:41:56.204Z,29.70
2018-08-04T17:44:24.348Z,29.70
2018-08-04T17:46:52.372Z,29.70
2018-08-04T17:49:20.437Z,29.70
2018-08-04T17:51:48.491Z,29.70
2018-08-04T17:54:16.568Z,29.70
2018-08-04T17:56:45.698Z,29.70
2018-08-04T17:59:13.748Z,29.80
2018-08-04T18:01:41.813Z,29.70
2018-08-04T18:04:09.868Z,29.70
2018-08-04T18:06:37.921Z,29.80
2018-08-04T18:09:08.281Z,29.80
2018-08-04T18:11:36.652Z,29.80
2018-08-04T18:14:04.749Z,29.80
2018-08-04T18:16:32.793Z,29.80
2018-08-04T18:19:00.869Z,29.90
2018-08-04T18:21:28.920Z,29.90
2018-08-04T18:23:56.980Z,29.80
2018-08-04T18:26:25.296Z,29.80
2018-08-04T18:28:53.345Z,29.80
2018-08-04T18:31:21.388Z,29.70
2018-08-04T18:33:49.436Z,29.70
2018-08-04T18:36:18.017Z,29.60
2018-08-04T18:38:46.089Z,29.60
2018-08-04T18:41:14.135Z,29.50
2018-08-04T18:43:42.184Z,29.50
2018-08-04T18:46:10.236Z,29.40
2018-08-04T18:48:38.284Z,29.40
2018-08-04T18:51:06.460Z,29.40
2018-08-04T18:53:34.504Z,29.40
2018-08-04T18:56:02.745Z,29.40
2018-08-04T18:58:30.848Z,29.40
2018-08-04T19:00:58.884Z,29.40
2018-08-04T19:03:26.948Z,29.40
2018-08-04T19:05:55.268Z,29.30
2018-08-04T19:08:23.328Z,29.20
2018-08-04T19:10:51.551Z,29.10
2018-08-04T19:13:19.588Z,29.10
2018-08-04T19:15:49.135Z,29.10
2018-08-04T19:18:17.150Z,29.10
2018-08-04T19:20:45.216Z,29.10
2018-08-04T19:23:13.585Z,29.00
2018-08-04T19:25:41.635Z,29.00
2018-08-04T19:28:10.911Z,29.00
2018-08-04T19:30:38.948Z,28.90
2018-08-04T19:33:11.287Z,28.80
2018-08-04T19:35:39.336Z,28.70
2018-08-04T19:38:07.477Z,28.70
2018-08-04T19:40:35.525Z,28.70
2018-08-04T19:43:03.600Z,28.60
2018-08-04T19:45:31.762Z,28.60
2018-08-04T19:47:59.824Z,28.50
2018-08-04T19:50:27.860Z,28.50
2018-08-04T19:52:55.913Z,28.50
2018-08-04T19:55:24.036Z,28.40
2018-08-04T19:57:52.080Z,28.40
2018-08-04T20:00:20.116Z,28.30
2018-08-04T20:02:48.169Z,28.30
2018-08-04T20:05:16.244Z,28.20
2018-08-04T20:07:44.387Z,28.20
2018-08-04T20:10:12.452Z,28.10
2018-08-04T20:12:40.536Z,28.10
2018-08-04T20:15:08.609Z,28.00
2018-08-04T20:17:36.759Z,28.00
2018-08-04T20:20:05.017Z,27.90
2018-08-04T20:22:33.081Z,27.90
2018-08-04T20:25:01.144Z,27.90
2018-08-04T20:27:29.220Z,27.90
2018-08-04T20:29:57.392Z,27.90
2018-08-04T20:32:25.463Z,27.80
2018-08-04T20:34:53.587Z,27.80
2018-08-04T20:37:21.592Z,27.80
2018-08-04T20:39:49.655Z,27.90
2018-08-04T20:42:17.719Z,27.80
2018-08-04T20:44:45.868Z,27.90
2018-08-04T20:47:13.879Z,27.90
2018-08-04T20:49:41.950Z,27.90
2018-08-04T20:52:10.011Z,27.90
2018-08-04T20:54:38.093Z,28.00
2018-08-04T20:57:06.195Z,28.00
2018-08-04T20:59:34.261Z,27.90
2018-08-04T21:02:03.624Z,27.80
2018-08-04T21:04:32.937Z,27.80
2018-08-04T21:07:01.529Z,27.80
2018-08-04T21:09:29.608Z,27.70
2018-08-04T21:11:57.798Z,27.70
2018-08-04T21:14:26.816Z,27.70
2018-08-04T21:16:55.814Z,27.70
2018-08-04T21:19:24.269Z,27.70
2018-08-04T21:21:52.332Z,27.60
2018-08-04T21:24:21.716Z,27.50
2018-08-04T21:26:50.957Z,27.50
2018-08-04T21:29:19.032Z,27.40
2018-08-04T21:31:47.096Z,27.30
2018-08-04T21:34:15.160Z,27.30
2018-08-04T21:36:43.865Z,27.20
2018-08-04T21:39:13.396Z,27.20
2018-08-04T21:41:42.089Z,27.10
2018-08-04T21:44:10.206Z,27.10
2018-08-04T21:46:41.045Z,27.10
2018-08-04T21:49:09.131Z,27.00
2018-08-04T21:51:37.276Z,27.00
2018-08-04T21:54:05.340Z,26.90
2018-08-04T21:56:33.419Z,26.90
2018-08-04T21:59:01.493Z,26.80
2018-08-04T22:01:29.628Z,26.80
2018-08-04T22:03:57.621Z,26.80
2018-08-04T22:06:35.408Z,26.70
2018-08-04T22:09:15.013Z,26.70
2018-08-04T22:11:43.076Z,26.60
2018-08-04T22:14:11.127Z,26.60
2018-08-04T22:16:39.161Z,26.60
2018-08-04T22:19:07.252Z,26.60
2018-08-04T22:21:35.261Z,26.50
2018-08-04T22:24:03.316Z,26.50
2018-08-04T22:26:31.357Z,26.50
2018-08-04T22:28:59.564Z,26.40
2018-08-04T22:31:27.603Z,26.40
2018-08-04T22:33:55.656Z,26.40
2018-08-04T22:36:23.729Z,26.40
2018-08-04T22:38:51.762Z,26.30
2018-08-04T22:41:19.816Z,26.30
2018-08-04T22:43:47.860Z,26.20
2018-08-04T22:46:17.079Z,26.10
2018-08-04T22:48:46.388Z,26.10
2018-08-04T22:51:18.740Z,26.10
2018-08-04T22:53:46.904Z,26.10
2018-08-04T22:56:14.952Z,26.00
2018-08-04T22:58:43.031Z,26.00
2018-08-04T23:01:11.331Z,26.00
2018-08-04T23:03:39.376Z,25.90
2018-08-04T23:06:07.470Z,25.90
2018-08-04T23:08:35.528Z,25.80
2018-08-04T23:11:03.600Z,25.80
2018-08-04T23:13:31.667Z,25.80
2018-08-04T23:15:59.731Z,25.80
2018-08-04T23:18:27.843Z,25.70
2018-08-04T23:20:55.904Z,25.70
2018-08-04T23:23:23.970Z,25.70
2018-08-04T23:25:52.032Z,25.70
2018-08-04T23:28:20.100Z,25.60
2018-08-04T23:30:48.168Z,25.50
2018-08-04T23:33:16.223Z,25.50
2018-08-04T23:35:44.292Z,25.40
2018-08-04T23:38:12.352Z,25.30
2018-08-04T23:40:40.422Z,25.20
2018-08-04T23:43:08.480Z,25.20
2018-08-04T23:45:36.547Z,25.00
2018-08-04T23:48:04.612Z,25.00
2018-08-04T23:50:32.688Z,24.90
2018-08-04T23:53:00.740Z,24.80
2018-08-04T23:55:28.807Z,24.70
2018-08-04T23:57:56.875Z,24.70
